Bonifati, Italy

10:09 AM CEST on September 21, 2014 (GMT +0200)
ICALABRI44 | Change Station
CLOSE
Current Station
Personal Weather Station
Location: Bisignano, CALABRIA
Elevation: 738 ft
Nearby Weather Stations

Elev 738 ft 39.50 °N, 16.27 °E | Updated 4 seconds ago

Partly Cloudy
Partly Cloudy
82.9 °F
Feels Like 84 °F
N
2.6
Wind Variable Wind from South
Gusts 6.0 mph

Today
High -- | Low -- °F
--% Chance of Precip.
Yesterday
High -- | Low -- °F
Precip. -- in
6:42 AM 6:55 PM
Waning Crescent, 8% visible
Pressure 30.06 in
Visibility 6.2 miles
Clouds Few 1500 ft
Heat Index 84 °F
Dew Point 64 °F
Humidity 52%
Rainfall 0.00 in
Snow Depth Not available.
UV 4 out of 12
Pollen Not available.
Air Quality Not available.
Flu Activity Not available.
METAR LICA 210750Z 25007KT 9999 FEW015 27/22 Q1018

More Conditions Fewer Conditions

Pressure 30.06 in
Visibility 6.2 miles
Clouds Few 1500 ft
Heat Index 84 °F
Dew Point 64 °F
Humidity 52%
Rainfall 0.00 in
Snow Depth Not available.
UV 4 out of 12
Pollen Not available.
Air Quality Not available.
Flu Activity Not available.
METAR LICA 210750Z 25007KT 9999 FEW015 27/22 Q1018

More Conditions Fewer Conditions

10-Day Weather Forecast

Almanac

Astronomy

Sep. 21, 2014 Rise Set
Actual Time 6:42 AM CEST 6:55 PM CEST
Civil Twilight 6:16 AM CEST 7:22 PM CEST
Nautical Twilight 5:44 AM CEST 7:53 PM CEST
Astronomical Twilight 5:12 AM CEST 8:25 PM CEST
Moon 4:01 AM CEST 5:21 PM CEST
Length of Visible Light 13h 06m
Length of Day
12h 12m
Tomorrow will be 2m 34s shorter.
Waning Crescent, 8% of the Moon is Illuminated
Today
Waning Crescent
Sep 24
New
Oct 1
First Quarter
Oct 8
Full
Oct 15
Last Quarter

Yesterday's Extremes

Country Highs Country Lows

Community

WunderPhotos

Upload Photos

1,755,101 photos uploaded!

Nearby

Snow Depth

Not available.

Earthquake Activity

City Distance Mag. Time & Date
No recent earthquake activity has been reported nearby.
Minimum magnitude displayed is 2.5.

Coastal Water Temperatures

Place Temperature
No Stations Reporting

Nearby Weather Stations